This is the latest recevied weather packets stored in our database for station/object PD0HRY-12. If no packets are shown the sender has not sent any weather packets the latest 10 day(s).
| Time | Temp. | Humidity | Pressure | Rain* | Wind** | Luminosity | Snow |
|---|---|---|---|---|---|---|---|
| 1777804201 | 20° C | 70% | 1003 hPa | 39.62 mm | - | - | - |
| 1777802404 | 19.44° C | 72% | 1003 hPa | 39.62 mm | - | - | - |
| 1777800603 | 19.44° C | 76% | 1003 hPa | 39.62 mm | - | - | - |
| 1777798801 | 18.89° C | 77% | 1003 hPa | 39.62 mm | - | - | - |
| 1777797004 | 18.89° C | 77% | 1003 hPa | 39.62 mm | - | - | - |
| 1777795202 | 18.33° C | 78% | 1003 hPa | 39.62 mm | - | - | - |
| 1777793401 | 17.78° C | 81% | 1003 hPa | 39.62 mm | - | - | - |
| 1777791604 | 16.67° C | 82% | 1003 hPa | 39.62 mm | - | - | - |
| 1777789802 | 15.56° C | 87% | 1003 hPa | 39.62 mm | - | - | - |
| 1777788001 | 14.44° C | 94% | 1004 hPa | 39.62 mm | - | - | - |
| 1777786204 | 13.89° C | 95% | 1004 hPa | 39.62 mm | - | - | - |
| 1777784402 | 13.33° C | 95% | 1004 hPa | 39.62 mm | - | - | - |
| 1777782601 | 13.33° C | 94% | 1004 hPa | 39.62 mm | - | - | - |
| 1777780804 | 13.33° C | 93% | 1004 hPa | 39.62 mm | - | - | - |
| 1777779002 | 13.89° C | 93% | 1004 hPa | 39.62 mm | - | - | - |
| 1777777200 | 13.89° C | 92% | 1004 hPa | 39.62 mm | - | - | - |
| 1777775404 | 13.89° C | 92% | 1004 hPa | 39.62 mm | - | - | - |
| 1777773601 | 13.89° C | 91% | 1004 hPa | 39.62 mm | - | - | - |
| 1777770003 | 14.44° C | 92% | 1005 hPa | 33.53 mm | - | - | - |
| 1777768202 | 14.44° C | 92% | 1006 hPa | 29.97 mm | - | - | - |
| 1777766405 | 14.44° C | 91% | 1006 hPa | 24.64 mm | - | - | - |
| 1777764603 | 14.44° C | 90% | 1005 hPa | 22.1 mm | - | - | - |
| 1777762801 | 15.56° C | 82% | 1006 hPa | - | - | - | - |
| 1777761005 | 16.67° C | 73% | 1007 hPa | - | - | - | - |
| 1777759204 | 17.22° C | 78% | 1007 hPa | - | - | - | - |
* Rain latest 24 hours (hover to see other rain measurements)
** Current wind speed in m/s (hover to see current wind gust speed)